createdAt,value
2023-01-08T00:01:24.562Z,1.52
2023-01-08T00:03:52.636Z,1.73
2023-01-08T00:06:23.436Z,2.05
2023-01-08T00:08:51.556Z,1.60
2023-01-08T00:11:19.417Z,1.48
2023-01-08T00:13:47.283Z,1.70
2023-01-08T00:16:17.816Z,1.70
2023-01-08T00:18:47.125Z,1.85
2023-01-08T00:21:15.363Z,1.77
2023-01-08T00:23:43.260Z,1.83
2023-01-08T00:26:11.745Z,2.05
2023-01-08T00:28:40.108Z,1.67
2023-01-08T00:31:11.374Z,2.00
2023-01-08T00:33:40.426Z,1.83
2023-01-08T00:36:12.056Z,1.67
2023-01-08T00:38:42.562Z,2.20
2023-01-08T00:41:10.784Z,1.80
2023-01-08T00:43:38.681Z,2.17
2023-01-08T00:46:07.475Z,1.80
2023-01-08T00:48:38.848Z,1.65
2023-01-08T00:51:08.687Z,1.50
2023-01-08T00:53:38.028Z,1.90
2023-01-08T00:56:11.301Z,1.40
2023-01-08T00:58:39.419Z,1.60
2023-01-08T01:01:12.677Z,2.42
2023-01-08T01:03:40.791Z,2.28
2023-01-08T01:06:10.148Z,1.77
2023-01-08T01:08:38.118Z,1.60
2023-01-08T01:11:11.359Z,1.80
2023-01-08T01:13:39.320Z,2.28
2023-01-08T01:16:08.421Z,2.15
2023-01-08T01:18:36.483Z,1.83
2023-01-08T01:21:23.720Z,1.83
2023-01-08T01:23:56.174Z,2.15
2023-01-08T01:26:25.071Z,1.65
2023-01-08T01:28:55.547Z,2.10
2023-01-08T01:31:24.970Z,1.98
2023-01-08T01:33:53.037Z,2.00
2023-01-08T01:36:25.231Z,2.05
2023-01-08T01:38:56.077Z,1.95
2023-01-08T01:41:45.496Z,1.92
2023-01-08T01:44:41.790Z,1.48
2023-01-08T01:47:33.576Z,1.90
2023-01-08T01:50:20.667Z,1.73
2023-01-08T01:52:58.418Z,1.77
2023-01-08T01:55:27.626Z,1.95
2023-01-08T01:58:24.584Z,1.90
2023-01-08T02:00:54.356Z,1.75
2023-01-08T02:03:25.466Z,1.90
2023-01-08T02:06:40.624Z,1.52
2023-01-08T02:09:11.385Z,1.98
2023-01-08T02:12:13.926Z,1.55
2023-01-08T02:15:19.742Z,1.70
2023-01-08T02:18:05.564Z,1.83
2023-01-08T02:20:37.767Z,1.50
2023-01-08T02:23:47.032Z,1.70
2023-01-08T02:26:32.692Z,2.03
2023-01-08T02:29:08.501Z,1.70
2023-01-08T02:31:40.803Z,1.75
2023-01-08T02:34:09.653Z,1.90
2023-01-08T02:36:42.347Z,2.00
2023-01-08T02:39:28.882Z,1.60
2023-01-08T02:42:27.315Z,1.45
2023-01-08T02:45:26.420Z,1.60
2023-01-08T02:48:22.893Z,1.80
2023-01-08T02:51:20.802Z,1.73
2023-01-08T02:53:53.947Z,1.60
2023-01-08T02:56:27.321Z,1.88
2023-01-08T02:58:57.341Z,1.58
2023-01-08T03:01:26.061Z,1.55
2023-01-08T03:04:06.730Z,1.45
2023-01-08T03:06:34.661Z,1.50
2023-01-08T03:09:02.674Z,1.52
2023-01-08T03:11:55.001Z,1.45
2023-01-08T03:14:29.835Z,1.90
2023-01-08T03:17:10.921Z,1.55
2023-01-08T03:19:45.064Z,1.17
2023-01-08T03:22:15.875Z,1.48
2023-01-08T03:24:46.776Z,1.50
2023-01-08T03:27:20.343Z,1.23
2023-01-08T03:29:52.179Z,1.75
2023-01-08T03:32:21.783Z,1.75
2023-01-08T03:34:50.161Z,1.85
2023-01-08T03:37:24.914Z,1.92
2023-01-08T03:40:00.383Z,1.58
2023-01-08T03:42:31.207Z,1.50
2023-01-08T03:45:00.193Z,1.60
2023-01-08T03:47:30.741Z,1.90
2023-01-08T03:50:03.815Z,1.40
2023-01-08T03:52:32.910Z,1.65
2023-01-08T03:55:00.978Z,1.50
2023-01-08T03:57:28.856Z,1.58
2023-01-08T03:59:56.813Z,1.60
2023-01-08T04:02:24.969Z,1.40
2023-01-08T04:04:52.917Z,1.52
2023-01-08T04:07:21.610Z,1.60
2023-01-08T04:09:49.549Z,1.70
2023-01-08T04:12:17.464Z,1.50
2023-01-08T04:14:45.337Z,1.67
2023-01-08T04:17:14.001Z,1.52
2023-01-08T04:19:41.958Z,1.30
2023-01-08T04:22:12.600Z,1.38
2023-01-08T04:24:40.568Z,1.63
2023-01-08T04:27:08.458Z,1.30
2023-01-08T04:29:36.368Z,1.10
2023-01-08T04:32:04.379Z,1.40
2023-01-08T04:34:32.350Z,1.40
2023-01-08T04:37:00.589Z,1.65
2023-01-08T04:39:28.503Z,1.30
2023-01-08T04:41:56.482Z,1.52
2023-01-08T04:44:24.402Z,1.40
2023-01-08T04:46:52.921Z,1.70
2023-01-08T04:49:20.919Z,1.30
2023-01-08T04:51:48.874Z,1.85
2023-01-08T04:54:16.931Z,1.58
2023-01-08T04:56:45.014Z,1.20
2023-01-08T04:59:12.909Z,1.40
2023-01-08T05:01:40.973Z,1.75
2023-01-08T05:04:10.040Z,1.70
2023-01-08T05:06:37.923Z,1.63
2023-01-08T05:09:05.777Z,1.50
2023-01-08T05:11:33.906Z,1.40
2023-01-08T05:14:01.761Z,1.77
2023-01-08T05:16:29.579Z,1.17
2023-01-08T05:18:57.656Z,1.55
2023-01-08T05:21:25.630Z,1.38
2023-01-08T05:23:53.519Z,1.50
2023-01-08T05:26:21.493Z,1.65
2023-01-08T05:28:49.399Z,1.35
2023-01-08T05:31:17.401Z,1.30
2023-01-08T05:33:45.919Z,1.48
2023-01-08T05:36:13.901Z,1.35
2023-01-08T05:38:41.945Z,1.42
2023-01-08T05:41:10.318Z,1.80
2023-01-08T05:43:38.300Z,1.45
2023-01-08T05:46:06.464Z,1.35
2023-01-08T05:48:36.100Z,1.50
2023-01-08T05:51:04.710Z,1.30
2023-01-08T05:53:33.241Z,1.55
2023-01-08T05:56:09.460Z,1.52
2023-01-08T05:58:38.178Z,1.10
2023-01-08T06:01:13.105Z,1.20
2023-01-08T06:03:41.233Z,1.10
2023-01-08T06:06:10.279Z,1.30
2023-01-08T06:08:38.205Z,1.40
2023-01-08T06:11:09.003Z,1.52
2023-01-08T06:13:40.340Z,1.10
2023-01-08T06:18:36.077Z,1.30
2023-01-08T06:21:05.174Z,1.15
2023-01-08T06:23:33.545Z,1.25
2023-01-08T06:26:04.161Z,1.20
2023-01-08T06:28:32.797Z,1.77
2023-01-08T06:31:01.734Z,1.30
2023-01-08T06:33:30.516Z,1.10
2023-01-08T06:36:04.399Z,1.58
2023-01-08T06:38:36.548Z,1.50
2023-01-08T06:41:10.296Z,1.15
2023-01-08T06:43:38.822Z,1.30
2023-01-08T06:46:08.680Z,1.60
2023-01-08T06:48:37.230Z,1.20
2023-01-08T06:51:05.517Z,1.20
2023-01-08T06:53:33.788Z,0.90
2023-01-08T06:56:04.294Z,1.40
2023-01-08T06:58:32.374Z,0.98
2023-01-08T07:01:00.332Z,1.33
2023-01-08T07:03:28.384Z,1.02
2023-01-08T07:05:56.949Z,1.08
2023-01-08T07:08:24.854Z,0.73
2023-01-08T07:10:52.791Z,1.17
2023-01-08T07:13:22.669Z,1.10
2023-01-08T07:15:50.680Z,1.20
2023-01-08T07:18:18.699Z,1.25
2023-01-08T07:20:47.807Z,1.02
2023-01-08T07:23:15.780Z,1.00
2023-01-08T07:25:43.762Z,1.02
2023-01-08T07:28:12.958Z,1.52
2023-01-08T07:30:41.237Z,1.20
2023-01-08T07:33:09.168Z,0.95
2023-01-08T07:35:38.998Z,1.48
2023-01-08T07:38:07.104Z,1.20
2023-01-08T07:40:35.155Z,1.08
2023-01-08T07:43:04.555Z,0.90
2023-01-08T07:45:32.608Z,1.08
2023-01-08T07:48:00.923Z,1.08
2023-01-08T07:50:29.032Z,1.17
2023-01-08T07:53:00.941Z,1.10
2023-01-08T07:55:30.766Z,1.30
2023-01-08T07:57:59.012Z,1.27
2023-01-08T08:00:27.320Z,1.15
2023-01-08T08:02:55.935Z,0.90
2023-01-08T08:05:24.034Z,1.02
2023-01-08T08:07:51.919Z,1.10
2023-01-08T08:10:19.785Z,1.20
2023-01-08T08:12:47.717Z,1.00
2023-01-08T08:15:15.714Z,0.90
2023-01-08T08:17:49.432Z,1.00
2023-01-08T08:20:17.399Z,0.95
2023-01-08T08:22:45.369Z,1.00
2023-01-08T08:25:15.262Z,0.98
2023-01-08T08:30:13.685Z,0.73
2023-01-08T08:32:41.644Z,1.00
2023-01-08T08:35:09.925Z,1.02
2023-01-08T08:37:37.843Z,1.17
2023-01-08T08:40:06.303Z,0.93
2023-01-08T08:42:34.229Z,1.00
2023-01-08T08:45:02.284Z,1.10
2023-01-08T08:47:30.201Z,1.05
2023-01-08T08:49:58.051Z,1.15
2023-01-08T08:52:25.959Z,1.20
2023-01-08T08:54:53.882Z,1.50
2023-01-08T08:57:27.089Z,1.30
2023-01-08T08:59:55.200Z,1.45
2023-01-08T09:02:23.305Z,1.50
2023-01-08T09:04:51.276Z,1.42
2023-01-08T09:07:19.242Z,1.48
2023-01-08T09:09:47.141Z,1.20
2023-01-08T09:12:15.003Z,1.10
2023-01-08T09:14:42.874Z,1.23
2023-01-08T09:17:12.433Z,1.38
2023-01-08T09:19:40.564Z,1.17
2023-01-08T09:22:08.483Z,1.10
2023-01-08T09:24:36.405Z,1.00
2023-01-08T09:27:04.362Z,0.90
2023-01-08T09:29:32.461Z,0.68
2023-01-08T09:32:01.944Z,1.02
2023-01-08T09:34:31.542Z,1.08
2023-01-08T09:36:59.525Z,1.15
2023-01-08T09:39:27.628Z,0.90
2023-01-08T09:41:56.866Z,0.93
2023-01-08T09:44:28.465Z,0.75
2023-01-08T09:46:57.076Z,0.88
2023-01-08T09:49:43.969Z,0.82
2023-01-08T09:52:13.577Z,0.88
2023-01-08T09:54:42.143Z,0.95
2023-01-08T09:57:17.190Z,1.02
2023-01-08T09:59:47.851Z,1.10
2023-01-08T10:02:23.214Z,0.93
2023-01-08T10:05:00.386Z,1.10
2023-01-08T10:07:30.456Z,1.10
2023-01-08T10:09:58.510Z,1.38
2023-01-08T10:12:35.356Z,0.90
2023-01-08T10:15:08.452Z,1.00
2023-01-08T10:17:42.409Z,1.02
2023-01-08T10:20:19.289Z,1.17
2023-01-08T10:22:48.020Z,1.10
2023-01-08T10:25:25.859Z,1.10
2023-01-08T10:28:02.497Z,1.20
2023-01-08T10:30:30.426Z,1.48
2023-01-08T10:33:04.333Z,1.55
2023-01-08T10:35:37.811Z,1.05
2023-01-08T10:38:05.890Z,1.20
2023-01-08T10:40:48.813Z,0.93
2023-01-08T10:43:26.531Z,1.42
2023-01-08T10:46:00.398Z,1.20
2023-01-08T10:48:54.308Z,1.20
2023-01-08T10:51:26.066Z,1.25
2023-01-08T10:53:56.479Z,1.27
2023-01-08T10:56:30.833Z,1.15
2023-01-08T10:58:58.880Z,1.00
2023-01-08T11:01:32.038Z,1.50
2023-01-08T11:04:03.219Z,1.38
2023-01-08T11:06:42.336Z,1.25
2023-01-08T11:09:28.147Z,1.35
2023-01-08T11:11:56.333Z,1.10
2023-01-08T11:14:31.764Z,1.27
2023-01-08T11:17:00.542Z,1.10
2023-01-08T11:19:33.105Z,1.08
2023-01-08T11:22:23.311Z,0.88
2023-01-08T11:24:53.103Z,1.02
2023-01-08T11:27:31.239Z,1.40
2023-01-08T11:30:23.625Z,1.73
2023-01-08T11:33:09.380Z,1.30
2023-01-08T11:35:48.555Z,1.20
2023-01-08T11:38:17.191Z,1.40
2023-01-08T11:40:50.945Z,1.60
2023-01-08T11:44:11.279Z,1.70
2023-01-08T11:47:15.821Z,1.30
2023-01-08T11:50:03.625Z,1.38
2023-01-08T11:52:58.916Z,1.00
2023-01-08T11:55:37.242Z,1.05
2023-01-08T11:58:23.015Z,1.10
2023-01-08T12:01:07.465Z,1.48
2023-01-08T12:03:49.941Z,1.35
2023-01-08T12:06:33.166Z,1.25
2023-01-08T12:09:16.277Z,1.33
2023-01-08T12:12:15.099Z,1.67
2023-01-08T12:15:25.028Z,1.63
2023-01-08T12:18:25.956Z,0.98
2023-01-08T12:21:31.922Z,1.35
2023-01-08T12:24:15.581Z,1.40
2023-01-08T12:27:29.802Z,1.30
2023-01-08T12:30:29.594Z,1.33
2023-01-08T12:33:15.627Z,1.02
2023-01-08T12:35:52.647Z,0.82
2023-01-08T12:38:25.785Z,1.10
2023-01-08T12:41:07.354Z,1.30
2023-01-08T12:43:51.558Z,1.42
2023-01-08T12:46:20.121Z,1.20
2023-01-08T12:48:52.095Z,1.35
2023-01-08T12:52:21.413Z,1.15
2023-01-08T12:55:01.774Z,1.30
2023-01-08T12:57:38.982Z,1.30
2023-01-08T13:00:08.830Z,1.40
2023-01-08T13:03:02.790Z,1.10
2023-01-08T13:05:32.957Z,1.50
2023-01-08T13:08:35.055Z,1.50
2023-01-08T13:11:03.864Z,1.77
2023-01-08T13:13:39.667Z,1.20
2023-01-08T13:16:17.197Z,1.45
2023-01-08T13:19:02.757Z,0.85
2023-01-08T13:21:43.180Z,1.00
2023-01-08T13:24:37.340Z,1.80
2023-01-08T13:27:17.314Z,1.00
2023-01-08T13:29:48.611Z,1.08
2023-01-08T13:32:45.616Z,0.90
2023-01-08T13:35:16.365Z,1.08
2023-01-08T13:37:51.394Z,1.05
2023-01-08T13:40:43.798Z,1.10
2023-01-08T13:43:30.176Z,0.85
2023-01-08T13:46:00.757Z,1.40
2023-01-08T13:48:37.459Z,1.00
2023-01-08T13:51:06.026Z,1.00
2023-01-08T13:53:34.610Z,0.90
2023-01-08T13:56:09.679Z,1.10
2023-01-08T13:58:45.673Z,1.10
2023-01-08T14:01:14.818Z,1.00
2023-01-08T14:03:48.247Z,1.25
2023-01-08T14:06:16.211Z,1.38
2023-01-08T14:09:02.849Z,1.30
2023-01-08T14:11:43.490Z,1.10
2023-01-08T14:14:14.371Z,1.05
2023-01-08T14:16:42.714Z,1.45
2023-01-08T14:19:17.491Z,0.95
2023-01-08T14:21:54.814Z,1.50
2023-01-08T14:24:25.271Z,1.10
2023-01-08T14:26:56.796Z,0.70
2023-01-08T14:29:30.673Z,0.80
2023-01-08T14:32:01.041Z,0.90
2023-01-08T14:34:31.012Z,1.07
2023-01-08T14:36:59.196Z,1.10
2023-01-08T14:39:33.645Z,1.00
2023-01-08T14:42:27.626Z,1.30
2023-01-08T14:45:04.069Z,1.00
2023-01-08T14:47:44.869Z,0.88
2023-01-08T14:50:26.658Z,1.13
2023-01-08T14:53:05.863Z,1.00
2023-01-08T14:55:37.345Z,0.80
2023-01-08T14:58:18.739Z,0.80
2023-01-08T15:03:38.777Z,0.80
2023-01-08T15:06:07.441Z,0.80
2023-01-08T15:08:43.551Z,0.73
2023-01-08T15:11:31.253Z,0.93
2023-01-08T15:13:59.783Z,1.25
2023-01-08T15:16:31.497Z,0.85
2023-01-08T15:19:22.173Z,1.10
2023-01-08T15:21:51.966Z,0.80
2023-01-08T15:24:34.759Z,1.20
2023-01-08T15:27:09.897Z,0.90
2023-01-08T15:29:49.438Z,1.00
2023-01-08T15:32:17.423Z,1.02
2023-01-08T15:34:46.178Z,1.00
2023-01-08T15:37:15.415Z,1.02
2023-01-08T15:39:43.494Z,0.93
2023-01-08T15:42:43.636Z,1.10
2023-01-08T15:45:23.371Z,1.25
2023-01-08T15:47:51.342Z,1.00
2023-01-08T15:50:20.372Z,1.00
2023-01-08T15:52:48.522Z,1.10
2023-01-08T15:55:22.398Z,0.90
2023-01-08T15:57:50.843Z,1.08
2023-01-08T16:00:20.289Z,1.00
2023-01-08T16:02:53.071Z,1.20
2023-01-08T16:05:23.791Z,1.30
2023-01-08T16:07:51.794Z,1.20
2023-01-08T16:10:20.226Z,1.55
2023-01-08T16:12:48.250Z,1.52
2023-01-08T16:15:16.627Z,1.70
2023-01-08T16:17:45.080Z,2.17
2023-01-08T16:20:14.497Z,1.50
2023-01-08T16:22:42.533Z,1.75
2023-01-08T16:25:10.785Z,1.80
2023-01-08T16:27:39.419Z,2.40
2023-01-08T16:30:12.323Z,1.77
2023-01-08T16:32:40.395Z,1.55
2023-01-08T16:35:08.973Z,1.50
2023-01-08T16:37:37.124Z,1.35
2023-01-08T16:40:05.568Z,1.55
2023-01-08T16:42:33.556Z,1.60
2023-01-08T16:45:01.524Z,1.35
2023-01-08T16:47:29.624Z,1.67
2023-01-08T16:49:57.664Z,1.20
2023-01-08T16:52:25.545Z,1.30
2023-01-08T16:54:53.501Z,1.13
2023-01-08T16:57:21.375Z,1.25
2023-01-08T16:59:49.214Z,1.25
2023-01-08T17:02:17.365Z,1.30
2023-01-08T17:04:45.281Z,1.23
2023-01-08T17:07:16.436Z,1.10
2023-01-08T17:09:44.277Z,1.08
2023-01-08T17:12:22.143Z,1.50
2023-01-08T17:14:50.759Z,2.38
2023-01-08T17:17:18.885Z,1.95
2023-01-08T17:19:46.922Z,2.97
2023-01-08T17:22:14.892Z,2.35
2023-01-08T17:24:42.819Z,2.97
2023-01-08T17:27:11.602Z,2.97
2023-01-08T17:29:39.684Z,2.33
2023-01-08T17:32:07.595Z,2.22
2023-01-08T17:34:35.494Z,2.33
2023-01-08T17:37:03.355Z,2.30
2023-01-08T17:39:31.272Z,1.80
2023-01-08T17:42:17.770Z,1.95
2023-01-08T17:44:45.652Z,1.63
2023-01-08T17:47:13.601Z,1.17
2023-01-08T17:49:41.552Z,1.23
2023-01-08T17:52:12.063Z,1.63
2023-01-08T17:54:39.549Z,2.50
2023-01-08T17:57:07.529Z,2.20
2023-01-08T17:59:35.433Z,2.30
2023-01-08T18:02:03.557Z,2.40
2023-01-08T18:04:33.095Z,1.70
2023-01-08T18:07:00.988Z,3.70
2023-01-08T18:09:28.837Z,2.67
2023-01-08T18:11:56.767Z,2.58
2023-01-08T18:14:24.792Z,3.28
2023-01-08T18:16:53.679Z,3.10
2023-01-08T18:19:21.698Z,2.80
2023-01-08T18:21:49.611Z,2.72
2023-01-08T18:24:17.484Z,3.00
2023-01-08T18:26:46.417Z,3.08
2023-01-08T18:29:14.333Z,2.45
2023-01-08T18:31:44.996Z,2.28
2023-01-08T18:34:15.065Z,1.98
2023-01-08T18:36:43.182Z,1.70
2023-01-08T18:39:12.663Z,1.90
2023-01-08T18:41:59.188Z,1.52
2023-01-08T18:44:27.143Z,1.13
2023-01-08T18:46:55.093Z,1.50
2023-01-08T18:49:24.376Z,1.58
2023-01-08T18:51:52.285Z,1.98
2023-01-08T18:54:20.306Z,2.65
2023-01-08T18:56:48.227Z,2.47
2023-01-08T18:59:16.104Z,1.88
2023-01-08T19:01:44.108Z,1.80
2023-01-08T19:04:18.243Z,1.75
2023-01-08T19:06:46.527Z,2.10
2023-01-08T19:09:15.894Z,1.40
2023-01-08T19:11:44.007Z,1.42
2023-01-08T19:14:14.841Z,1.58
2023-01-08T19:16:48.313Z,2.42
2023-01-08T19:19:16.455Z,2.45
2023-01-08T19:21:44.352Z,3.40
2023-01-08T19:24:13.148Z,2.40
2023-01-08T19:26:41.121Z,2.33
2023-01-08T19:29:09.112Z,1.90
2023-01-08T19:31:37.101Z,2.17
2023-01-08T19:34:05.262Z,2.03
2023-01-08T19:36:33.946Z,1.65
2023-01-08T19:39:02.006Z,1.83
2023-01-08T19:41:48.379Z,1.65
2023-01-08T19:44:16.293Z,1.92
2023-01-08T19:46:44.291Z,1.35
2023-01-08T19:49:12.236Z,1.55
2023-01-08T19:51:40.298Z,1.60
2023-01-08T19:54:08.475Z,1.83
2023-01-08T19:56:36.345Z,1.67
2023-01-08T19:59:04.225Z,1.40
2023-01-08T20:01:33.598Z,1.50
2023-01-08T20:04:01.640Z,1.98
2023-01-08T20:06:29.596Z,1.30
2023-01-08T20:08:59.619Z,1.60
2023-01-08T20:11:28.460Z,1.92
2023-01-08T20:14:00.427Z,1.35
2023-01-08T20:16:29.624Z,1.88
2023-01-08T20:19:01.896Z,1.70
2023-01-08T20:21:30.354Z,1.60
2023-01-08T20:24:09.374Z,4.93
2023-01-08T20:26:38.327Z,1.95
2023-01-08T20:29:06.743Z,1.38
2023-01-08T20:31:35.147Z,1.25
2023-01-08T20:34:06.806Z,1.38
2023-01-08T20:36:36.048Z,1.30
2023-01-08T20:39:11.940Z,1.63
2023-01-08T20:41:43.473Z,1.55
2023-01-08T20:44:17.804Z,1.42
2023-01-08T20:46:45.690Z,1.70
2023-01-08T20:49:16.166Z,1.23
2023-01-08T20:51:54.338Z,1.48
2023-01-08T20:54:26.516Z,1.52
2023-01-08T20:56:56.857Z,1.63
2023-01-08T20:59:25.087Z,2.53
2023-01-08T21:01:53.351Z,3.85
2023-01-08T21:04:22.471Z,1.88
2023-01-08T21:06:50.423Z,1.48
2023-01-08T21:09:18.416Z,1.23
2023-01-08T21:11:46.365Z,1.00
2023-01-08T21:14:14.687Z,1.70
2023-01-08T21:16:42.721Z,1.35
2023-01-08T21:19:10.812Z,1.42
2023-01-08T21:21:40.746Z,1.05
2023-01-08T21:24:11.903Z,1.65
2023-01-08T21:26:39.761Z,1.52
2023-01-08T21:29:08.815Z,1.30
2023-01-08T21:31:37.707Z,1.55
2023-01-08T21:34:08.397Z,1.20
2023-01-08T21:36:36.943Z,1.30
2023-01-08T21:39:04.901Z,1.38
2023-01-08T21:41:51.299Z,1.20
2023-01-08T21:44:41.277Z,1.45
2023-01-08T21:47:16.752Z,1.10
2023-01-08T21:49:46.001Z,1.42
2023-01-08T21:52:33.102Z,1.10
2023-01-08T21:55:01.647Z,1.40
2023-01-08T21:57:29.669Z,1.38
2023-01-08T21:59:57.810Z,1.30
2023-01-08T22:02:26.072Z,1.45
2023-01-08T22:04:57.435Z,1.50
2023-01-08T22:09:54.292Z,1.45
2023-01-08T22:12:24.092Z,1.40
2023-01-08T22:14:56.695Z,1.52
2023-01-08T22:17:26.716Z,1.45
2023-01-08T22:19:54.724Z,1.27
2023-01-08T22:22:22.742Z,1.20
2023-01-08T22:24:54.040Z,1.50
2023-01-08T22:29:50.020Z,1.80
2023-01-08T22:32:17.982Z,1.48
2023-01-08T22:34:46.672Z,1.25
2023-01-08T22:37:16.748Z,1.25
2023-01-08T22:39:45.816Z,1.50
2023-01-08T22:42:13.933Z,1.40
2023-01-08T22:44:41.810Z,1.63
2023-01-08T22:47:10.020Z,1.92
2023-01-08T22:49:38.457Z,1.63
2023-01-08T22:52:07.255Z,1.20
2023-01-08T22:54:35.110Z,1.50
2023-01-08T22:57:03.024Z,1.13
2023-01-08T22:59:30.970Z,1.30
2023-01-08T23:01:58.869Z,1.25
2023-01-08T23:04:27.093Z,1.60
2023-01-08T23:06:54.976Z,1.30
2023-01-08T23:09:22.863Z,1.52
2023-01-08T23:11:50.857Z,1.30
2023-01-08T23:14:18.823Z,1.10
2023-01-08T23:16:46.758Z,1.70
2023-01-08T23:19:14.742Z,1.38
2023-01-08T23:21:42.780Z,1.30
2023-01-08T23:24:13.261Z,1.75
2023-01-08T23:26:41.831Z,1.42
2023-01-08T23:29:10.653Z,1.10
2023-01-08T23:31:38.802Z,1.50
2023-01-08T23:34:06.991Z,1.98
2023-01-08T23:36:34.987Z,1.42
2023-01-08T23:39:03.063Z,1.17
2023-01-08T23:41:34.449Z,1.25
2023-01-08T23:44:07.197Z,1.10
2023-01-08T23:46:35.580Z,1.23
2023-01-08T23:49:04.139Z,1.50
2023-01-08T23:51:32.054Z,1.40
2023-01-08T23:54:00.247Z,1.17
2023-01-08T23:56:28.353Z,1.33
2023-01-08T23:58:57.343Z,1.50
